Time;durP1;ratioP1;P1;durP2;ratioP2;P2;SDS_P1;SDS_P2;PMS_P1;PMS_P2;Temp;Humidity;BMP_temperature;BMP_pressure;BME280_temperature;BME280_humidity;BME280_pressure;Samples;Min_cycle;Max_cycle;Signal;HPM_P1;HPM_P2
2022/05/01 00:01:08;;;;;;;6.55;4.70;;;13.50;99.90;;;;;;5052330;28;20484;-48
2022/05/01 00:03:36;;;;;;;5.43;4.25;;;13.70;99.90;;;;;;5053759;28;20040;-49
2022/05/01 00:06:04;;;;;;;10.05;5.10;;;13.80;99.90;;;;;;5055692;28;20434;-47
2022/05/01 00:08:35;;;;;;;7.88;4.80;;;13.90;99.90;;;;;;5055201;28;20105;-47
2022/05/01 00:11:01;;;;;;;9.48;4.65;;;13.90;99.90;;;;;;5052879;28;20040;-47
2022/05/01 00:13:28;;;;;;;8.40;5.22;;;13.80;99.90;;;;;;5052602;28;20025;-47
2022/05/01 00:15:54;;;;;;;5.50;4.82;;;13.40;99.90;;;;;;5054909;28;20024;-48
2022/05/01 00:18:20;;;;;;;6.50;5.32;;;13.40;99.90;;;;;;5055604;28;20025;-48
2022/05/01 00:20:47;;;;;;;8.07;5.40;;;13.10;99.90;;;;;;5055908;28;20032;-49
2022/05/01 00:23:13;;;;;;;12.60;5.85;;;12.90;99.90;;;;;;5036467;28;20021;-47
2022/05/01 00:25:41;;;;;;;7.80;5.38;;;13.00;99.90;;;;;;5054171;28;20417;-47
2022/05/01 00:28:11;;;;;;;10.40;5.93;;;13.00;99.90;;;;;;5054948;28;20086;-48
2022/05/01 00:30:37;;;;;;;8.13;5.53;;;12.90;99.90;;;;;;5053660;28;20056;-49
2022/05/01 00:38:31;;;;;;;9.50;6.35;;;12.70;99.90;;;;;;5054832;28;20106;-48
2022/05/01 00:40:58;;;;;;;9.40;6.60;;;12.80;99.90;;;;;;5052633;28;20075;-47
2022/05/01 00:43:23;;;;;;;8.40;5.65;;;12.80;99.90;;;;;;5054978;28;20074;-47
2022/05/01 00:45:50;;;;;;;8.68;5.38;;;12.80;99.90;;;;;;5054585;28;20037;-48
2022/05/01 00:48:15;;;;;;;6.85;4.85;;;12.90;99.90;;;;;;5051650;28;20025;-48
2022/05/01 00:50:43;;;;;;;6.63;5.18;;;12.80;99.90;;;;;;5056910;28;20021;-48
2022/05/01 00:53:10;;;;;;;6.40;5.15;;;12.90;99.90;;;;;;5059728;28;20052;-48
2022/05/01 00:55:39;;;;;;;7.10;5.25;;;12.80;99.90;;;;;;5061512;28;20061;-49
2022/05/01 00:58:06;;;;;;;5.78;4.53;;;12.90;99.90;;;;;;5058677;28;20464;-46
2022/05/01 01:00:33;;;;;;;7.30;5.50;;;12.90;99.90;;;;;;5058225;28;20025;-49
2022/05/01 01:02:59;;;;;;;9.70;5.30;;;12.90;99.90;;;;;;5056365;28;20029;-47
2022/05/01 01:05:25;;;;;;;5.28;4.15;;;13.00;99.90;;;;;;5058381;28;20044;-49
2022/05/01 01:07:52;;;;;;;7.80;4.80;;;13.20;99.90;;;;;;5058983;28;20400;-48
2022/05/01 01:10:18;;;;;;;6.07;4.60;;;13.20;99.90;;;;;;5058026;28;20043;-48
2022/05/01 01:12:53;;;;;;;6.00;4.78;;;13.20;99.90;;;;;;5056001;28;20032;-47
2022/05/01 01:15:23;;;;;;;7.03;4.78;;;13.10;99.90;;;;;;5028958;28;20119;-50
2022/05/01 01:17:54;;;;;;;6.90;4.68;;;13.00;99.90;;;;;;5058900;28;20499;-47
2022/05/01 01:20:21;;;;;;;15.95;6.15;;;13.00;99.90;;;;;;5059020;28;20029;-48
2022/05/01 01:22:52;;;;;;;5.78;4.65;;;13.10;99.90;;;;;;5062425;28;20445;-47
2022/05/01 01:25:21;;;;;;;5.97;4.80;;;13.10;99.90;;;;;;5022054;28;20048;-49
2022/05/01 01:27:48;;;;;;;8.32;5.47;;;13.00;99.90;;;;;;5058766;28;20119;-47
2022/05/01 01:32:59;;;;;;;6.07;5.13;;;12.90;99.90;;;;;;5057131;28;20036;-48
2022/05/01 01:35:25;;;;;;;5.30;4.80;;;13.10;99.90;;;;;;5055487;28;20025;-48
2022/05/01 01:37:53;;;;;;;7.82;5.03;;;12.80;99.90;;;;;;5058427;28;20439;-49
2022/05/01 01:40:25;;;;;;;6.63;4.53;;;12.80;99.90;;;;;;5057879;28;20039;-49
2022/05/01 01:42:54;;;;;;;5.25;4.20;;;12.70;99.90;;;;;;5056424;28;20112;-48
2022/05/01 01:45:21;;;;;;;8.05;4.78;;;12.70;99.90;;;;;;5055524;28;20041;-47
2022/05/01 01:47:49;;;;;;;7.03;4.50;;;12.70;99.90;;;;;;5055987;28;20037;-47
2022/05/01 01:50:18;;;;;;;5.78;4.45;;;12.70;99.90;;;;;;5060833;28;20037;-49
2022/05/01 01:52:46;;;;;;;6.28;5.28;;;12.70;99.90;;;;;;5064276;28;20083;-47
2022/05/01 01:55:15;;;;;;;6.10;4.60;;;12.70;99.90;;;;;;5057927;28;20603;-49
2022/05/01 01:57:41;;;;;;;7.07;4.93;;;12.80;99.90;;;;;;5056674;28;20033;-47
2022/05/01 02:00:08;;;;;;;6.38;4.85;;;12.90;99.90;;;;;;5056838;28;20048;-49
2022/05/01 02:02:34;;;;;;;6.60;4.80;;;13.00;99.90;;;;;;5055269;28;20377;-49
2022/05/01 02:04:59;;;;;;;6.97;5.45;;;12.70;99.90;;;;;;5057858;28;20035;-49
2022/05/01 02:07:28;;;;;;;6.90;5.20;;;12.50;99.90;;;;;;5036395;28;20041;-48
2022/05/01 02:09:54;;;;;;;5.97;5.38;;;12.60;99.90;;;;;;5058011;28;20082;-48
2022/05/01 02:12:20;;;;;;;8.80;5.82;;;12.30;99.90;;;;;;5004148;28;20443;-47
2022/05/01 02:14:46;;;;;;;8.98;5.60;;;12.20;99.90;;;;;;5057009;28;20501;-49
2022/05/01 02:17:11;;;;;;;6.40;5.80;;;12.30;99.90;;;;;;5057258;28;20047;-49
2022/05/01 02:19:37;;;;;;;7.13;5.97;;;12.30;99.90;;;;;;5056232;28;20079;-51
2022/05/01 02:22:03;;;;;;;7.25;5.70;;;12.50;99.90;;;;;;5056145;28;20021;-49
2022/05/01 02:24:31;;;;;;;8.07;5.57;;;12.50;99.90;;;;;;5046572;28;20046;-51
2022/05/01 02:26:57;;;;;;;10.55;6.05;;;12.60;99.90;;;;;;5035279;28;20044;-49
2022/05/01 02:29:22;;;;;;;8.43;5.53;;;12.60;99.90;;;;;;5055441;28;20102;-46
2022/05/01 02:31:53;;;;;;;10.93;6.07;;;12.70;99.90;;;;;;5060906;28;20423;-52
2022/05/01 02:34:23;;;;;;;11.05;5.40;;;12.80;99.90;;;;;;5053928;28;20104;-48
2022/05/01 02:36:51;;;;;;;8.27;6.20;;;13.00;99.90;;;;;;5058132;28;20025;-49
2022/05/01 02:39:21;;;;;;;10.27;6.47;;;13.10;99.90;;;;;;5055120;28;20059;-49
2022/05/01 02:41:48;;;;;;;6.68;5.38;;;13.10;99.90;;;;;;5061756;28;20090;-49
2022/05/01 02:44:14;;;;;;;11.20;5.78;;;13.10;99.90;;;;;;5055812;28;20119;-46
2022/05/01 02:46:39;;;;;;;8.77;6.07;;;13.00;99.90;;;;;;5036273;28;20125;-47
2022/05/01 02:49:05;;;;;;;6.47;5.68;;;13.00;99.90;;;;;;5054565;28;20108;-47
2022/05/01 02:51:31;;;;;;;8.27;5.10;;;13.10;99.90;;;;;;5055061;28;20045;-51
2022/05/01 02:53:58;;;;;;;6.97;4.93;;;13.20;99.90;;;;;;5059320;28;20053;-47
2022/05/01 02:56:25;;;;;;;7.20;5.22;;;13.00;99.90;;;;;;5053641;28;20142;-47
2022/05/01 02:58:50;;;;;;;7.65;5.50;;;13.10;99.90;;;;;;5055198;28;20039;-47
2022/05/01 03:01:16;;;;;;;5.63;5.13;;;13.00;99.90;;;;;;5053824;28;20377;-47
2022/05/01 03:03:42;;;;;;;7.03;5.15;;;12.90;99.90;;;;;;5023221;28;20040;-48
2022/05/01 03:06:08;;;;;;;5.72;4.82;;;12.90;99.90;;;;;;5056192;28;20048;-49
2022/05/01 03:08:34;;;;;;;5.53;4.85;;;13.00;99.90;;;;;;5053756;28;20514;-49
2022/05/01 03:11:01;;;;;;;6.22;5.40;;;13.00;99.90;;;;;;5056738;28;20025;-47
2022/05/01 03:13:28;;;;;;;6.30;4.65;;;13.00;99.90;;;;;;5055163;28;20108;-47
2022/05/01 03:15:54;;;;;;;8.77;5.13;;;13.00;99.90;;;;;;5055909;28;20058;-49
2022/05/01 03:23:49;;;;;;;6.22;4.78;;;13.10;99.90;;;;;;5057051;28;20067;-48
2022/05/01 03:26:18;;;;;;;5.72;4.60;;;13.00;99.90;;;;;;5056073;28;20101;-49
2022/05/01 03:28:47;;;;;;;7.43;4.70;;;13.10;99.90;;;;;;5055463;28;20025;-49
2022/05/01 03:31:14;;;;;;;7.55;5.20;;;13.00;99.90;;;;;;5020485;28;20484;-49
2022/05/01 03:33:42;;;;;;;6.03;4.95;;;12.90;99.90;;;;;;5052540;28;20032;-47
2022/05/01 03:36:09;;;;;;;5.82;4.47;;;12.90;99.90;;;;;;5056718;28;20033;-48
2022/05/01 03:38:38;;;;;;;7.45;4.68;;;12.90;99.90;;;;;;5055592;28;20036;-48
2022/05/01 03:41:05;;;;;;;8.85;5.03;;;12.90;99.90;;;;;;5053106;28;20100;-46
2022/05/01 03:43:33;;;;;;;6.97;4.55;;;13.00;99.90;;;;;;5057785;28;20024;-47
2022/05/01 03:45:59;;;;;;;5.68;4.50;;;13.10;99.90;;;;;;5050686;28;20536;-48
2022/05/01 03:48:26;;;;;;;5.03;4.53;;;13.00;99.90;;;;;;5053351;28;20029;-48
2022/05/01 03:50:52;;;;;;;6.85;4.32;;;12.90;99.90;;;;;;5052993;28;20031;-46
2022/05/01 03:53:19;;;;;;;7.78;4.78;;;13.10;99.90;;;;;;5054498;28;20439;-48
2022/05/01 03:55:44;;;;;;;6.80;4.85;;;13.20;99.90;;;;;;5046754;28;20044;-47
2022/05/01 03:58:10;;;;;;;7.35;4.45;;;13.30;99.90;;;;;;5057509;28;20107;-48
2022/05/01 04:00:36;;;;;;;6.00;4.40;;;13.30;99.90;;;;;;5055959;28;20029;-47
2022/05/01 04:03:02;;;;;;;5.43;4.10;;;13.40;99.90;;;;;;5053567;28;20634;-47
2022/05/01 04:05:28;;;;;;;6.75;4.88;;;13.30;99.90;;;;;;5052892;28;20037;-49
2022/05/01 04:07:54;;;;;;;6.35;4.50;;;13.40;99.90;;;;;;5057514;28;20354;-49
2022/05/01 04:10:20;;;;;;;5.32;4.50;;;13.40;99.90;;;;;;5053386;28;20112;-48
2022/05/01 04:12:45;;;;;;;6.47;5.53;;;13.40;99.90;;;;;;5055819;28;20051;-47
2022/05/01 04:15:14;;;;;;;5.38;4.35;;;13.30;99.90;;;;;;5059599;28;20035;-48
2022/05/01 04:17:41;;;;;;;5.15;3.65;;;13.40;99.90;;;;;;5055126;28;20108;-47
2022/05/01 04:20:08;;;;;;;5.00;3.78;;;13.40;99.90;;;;;;5059659;28;20480;-46
2022/05/01 04:22:47;;;;;;;6.28;4.35;;;13.30;99.90;;;;;;5054525;28;20094;-49
2022/05/01 04:25:19;;;;;;;6.35;4.63;;;13.30;99.90;;;;;;5053740;28;20021;-49
2022/05/01 04:27:58;;;;;;;6.97;4.73;;;13.30;99.90;;;;;;5058195;28;20036;-47
2022/05/01 04:30:26;;;;;;;6.32;4.13;;;13.20;99.90;;;;;;5053979;28;20143;-50
2022/05/01 04:32:54;;;;;;;12.20;8.52;;;13.20;99.90;;;;;;5064358;28;20556;-50
2022/05/01 04:35:37;;;;;;;22.80;14.85;;;13.30;99.90;;;;;;5038576;28;20040;-48
2022/05/01 04:38:07;;;;;;;7.82;5.75;;;13.40;99.90;;;;;;5058538;28;20035;-49
2022/05/01 04:40:45;;;;;;;4.97;4.43;;;13.30;99.90;;;;;;5057994;28;20028;-48
2022/05/01 04:43:24;;;;;;;6.68;5.18;;;13.30;99.90;;;;;;5058376;28;20430;-48
2022/05/01 04:45:52;;;;;;;5.78;4.75;;;13.10;99.90;;;;;;5054347;28;20214;-51
2022/05/01 04:48:19;;;;;;;6.72;4.18;;;13.20;99.90;;;;;;5058172;28;20501;-48
2022/05/01 04:50:46;;;;;;;7.70;5.00;;;13.20;99.90;;;;;;5022654;28;20025;-51
2022/05/01 04:53:13;;;;;;;11.20;7.78;;;13.30;99.90;;;;;;5055612;28;20051;-46
2022/05/01 04:55:41;;;;;;;7.18;4.63;;;13.10;99.90;;;;;;5060702;28;20549;-46
2022/05/01 04:58:07;;;;;;;6.80;4.82;;;13.20;99.90;;;;;;5059275;28;20477;-47
2022/05/01 05:00:33;;;;;;;5.13;4.40;;;13.20;99.90;;;;;;5058124;28;20386;-49
2022/05/01 05:02:59;;;;;;;7.57;4.45;;;13.10;99.90;;;;;;5059665;28;20029;-47
2022/05/01 05:05:27;;;;;;;8.70;5.10;;;13.10;99.90;;;;;;5056866;28;20098;-47
2022/05/01 05:07:54;;;;;;;6.28;4.43;;;13.20;99.90;;;;;;5059105;28;20045;-50
2022/05/01 05:10:20;;;;;;;7.82;4.63;;;13.30;99.90;;;;;;5057107;28;20052;-50
2022/05/01 05:12:48;;;;;;;5.57;4.65;;;13.40;99.90;;;;;;5059445;28;20318;-50
2022/05/01 05:15:16;;;;;;;7.32;4.22;;;13.40;99.90;;;;;;5026583;28;20247;-47
2022/05/01 05:17:43;;;;;;;9.80;7.57;;;13.40;99.90;;;;;;5034478;28;20589;-50
2022/05/01 05:20:11;;;;;;;10.27;6.90;;;13.30;99.90;;;;;;5037400;28;20132;-48
2022/05/01 05:22:39;;;;;;;10.88;8.77;;;13.40;99.90;;;;;;5033289;28;20037;-48
2022/05/01 05:25:11;;;;;;;12.63;9.20;;;13.40;99.90;;;;;;5035709;28;20029;-47
2022/05/01 05:27:38;;;;;;;11.70;8.85;;;13.30;99.90;;;;;;5032013;28;20045;-49
2022/05/01 05:30:04;;;;;;;12.35;7.53;;;13.50;99.90;;;;;;5037881;28;20021;-47
2022/05/01 05:32:30;;;;;;;6.65;5.80;;;13.60;99.90;;;;;;5005246;28;20101;-49
2022/05/01 05:34:56;;;;;;;8.13;6.10;;;13.60;99.90;;;;;;5040711;28;20123;-47
2022/05/01 05:37:22;;;;;;;7.65;6.32;;;13.60;99.90;;;;;;5034896;28;20547;-48
2022/05/01 05:39:49;;;;;;;6.57;5.25;;;13.80;99.90;;;;;;5022007;28;20037;-47
2022/05/01 05:42:16;;;;;;;7.45;5.03;;;13.70;99.90;;;;;;5008126;28;20049;-46
2022/05/01 05:44:43;;;;;;;7.05;5.40;;;13.80;99.90;;;;;;5036019;28;20021;-47
2022/05/01 05:47:09;;;;;;;5.93;4.82;;;13.90;99.90;;;;;;5048969;28;20421;-46
2022/05/01 05:49:35;;;;;;;5.90;4.57;;;14.20;99.90;;;;;;5032038;28;20029;-48
2022/05/01 05:52:01;;;;;;;6.45;5.03;;;14.00;99.90;;;;;;5043935;28;20040;-49
2022/05/01 05:54:27;;;;;;;6.78;5.78;;;14.30;99.90;;;;;;5055361;28;20436;-48
2022/05/01 05:56:53;;;;;;;7.55;6.05;;;14.30;99.90;;;;;;5058808;28;20051;-48
2022/05/01 05:59:18;;;;;;;8.35;6.75;;;14.50;99.90;;;;;;5058435;28;20029;-47
2022/05/01 06:01:44;;;;;;;7.85;6.82;;;14.60;99.90;;;;;;5052933;28;20033;-48
2022/05/01 06:04:10;;;;;;;9.50;6.88;;;14.80;99.90;;;;;;5055206;28;20025;-49
2022/05/01 06:06:36;;;;;;;9.85;6.70;;;14.90;99.90;;;;;;5055363;28;20037;-47
2022/05/01 06:09:02;;;;;;;6.72;5.93;;;15.10;99.90;;;;;;5051314;28;20021;-46
2022/05/01 06:11:27;;;;;;;7.15;6.45;;;15.10;99.90;;;;;;5052519;28;20048;-47
2022/05/01 06:13:53;;;;;;;7.72;6.88;;;15.20;99.90;;;;;;5084054;28;20090;-47
2022/05/01 06:16:19;;;;;;;9.55;7.32;;;15.10;99.90;;;;;;5053733;28;20481;-48
2022/05/01 06:18:45;;;;;;;9.48;7.88;;;15.10;99.90;;;;;;5032863;28;20067;-46
2022/05/01 06:21:12;;;;;;;10.98;7.25;;;15.20;99.90;;;;;;5058890;28;20096;-48
2022/05/01 06:23:38;;;;;;;8.52;6.28;;;15.40;99.90;;;;;;5055450;28;20136;-50
2022/05/01 06:26:07;;;;;;;8.85;5.85;;;15.40;99.90;;;;;;5053563;28;20041;-48
2022/05/01 06:28:33;;;;;;;6.10;5.45;;;;;;;;;;5054850;28;20035;-47
2022/05/01 06:31:02;;;;;;;7.18;6.25;;;15.60;99.90;;;;;;5054614;28;20384;-44
2022/05/01 06:33:28;;;;;;;6.57;5.55;;;;;;;;;;5059379;28;20079;-45
2022/05/01 06:35:54;;;;;;;11.40;6.85;;;;;;;;;;5058845;28;20059;-47
2022/05/01 06:38:21;;;;;;;9.25;6.95;;;;;;;;;;5055641;28;20544;-47
2022/05/01 06:40:47;;;;;;;7.68;6.22;;;;;;;;;;5052397;28;20119;-46
2022/05/01 06:43:14;;;;;;;8.75;6.80;;;15.90;99.90;;;;;;5051914;28;20025;-47
2022/05/01 06:45:41;;;;;;;9.40;6.18;;;16.00;99.90;;;;;;5053826;28;20124;-47
2022/05/01 06:48:11;;;;;;;7.45;6.35;;;16.10;99.90;;;;;;5049819;28;20066;-45
2022/05/01 06:50:37;;;;;;;10.85;5.90;;;16.20;99.90;;;;;;5050325;28;20103;-48
2022/05/01 06:53:04;;;;;;;7.93;5.32;;;16.20;99.90;;;;;;5052746;28;20091;-47
2022/05/01 06:55:31;;;;;;;6.05;5.30;;;16.10;99.90;;;;;;5054199;28;20373;-47
2022/05/01 06:57:57;;;;;;;6.72;5.55;;;16.10;99.90;;;;;;5053589;28;20033;-44
2022/05/01 07:00:23;;;;;;;8.30;5.40;;;16.20;99.90;;;;;;5056345;28;20025;-46
2022/05/01 07:02:51;;;;;;;8.48;5.20;;;16.20;99.90;;;;;;5034821;28;20032;-44
2022/05/01 07:05:18;;;;;;;8.07;6.20;;;16.30;99.90;;;;;;5003612;28;20033;-47
2022/05/01 07:07:45;;;;;;;10.05;7.00;;;16.50;99.90;;;;;;5001951;28;20056;-45
2022/05/01 07:10:12;;;;;;;7.68;6.03;;;16.40;99.90;;;;;;5008017;28;20037;-45
2022/05/01 07:12:38;;;;;;;8.48;6.40;;;16.50;99.90;;;;;;5005336;28;20073;-45
2022/05/01 07:15:05;;;;;;;8.10;6.07;;;16.70;99.90;;;;;;5015717;28;20073;-46
2022/05/01 07:17:32;;;;;;;7.00;5.60;;;16.70;99.90;;;;;;4978749;28;20139;-45
2022/05/01 07:19:58;;;;;;;6.95;5.15;;;16.70;99.90;;;;;;5000080;28;20339;-47
2022/05/01 07:22:24;;;;;;;6.45;5.75;;;16.50;99.90;;;;;;4991884;28;20049;-45
2022/05/01 07:24:50;;;;;;;8.38;6.65;;;16.60;99.90;;;;;;5000756;28;20049;-47
2022/05/01 07:27:16;;;;;;;7.15;5.85;;;16.50;99.90;;;;;;5005515;28;20048;-47
2022/05/01 07:29:42;;;;;;;8.85;6.43;;;16.60;99.90;;;;;;4967252;28;20129;-44
2022/05/01 07:32:09;;;;;;;6.50;5.80;;;16.70;99.90;;;;;;4953647;28;20049;-46
2022/05/01 07:34:35;;;;;;;7.30;5.82;;;16.80;99.90;;;;;;4994746;28;20030;-46
2022/05/01 07:37:01;;;;;;;7.18;6.25;;;16.90;99.90;;;;;;5037946;28;20087;-47
2022/05/01 07:39:26;;;;;;;9.52;7.85;;;17.10;99.90;;;;;;5051696;28;20037;-47
2022/05/01 07:41:52;;;;;;;10.30;8.45;;;17.40;99.90;;;;;;5055083;28;20039;-47
2022/05/01 07:44:18;;;;;;;7.72;5.97;;;17.60;99.90;;;;;;5034775;28;20110;-46
2022/05/01 07:46:44;;;;;;;8.38;6.22;;;;;;;;;;5054031;28;20133;-46
2022/05/01 07:49:10;;;;;;;9.18;7.75;;;17.70;99.90;;;;;;5045518;28;20041;-46
2022/05/01 07:51:36;;;;;;;14.02;8.65;;;18.00;99.90;;;;;;5049817;28;20079;-46
2022/05/01 07:54:04;;;;;;;11.90;8.73;;;18.10;99.90;;;;;;5052431;28;20052;-47
2022/05/01 07:56:31;;;;;;;9.82;8.02;;;18.00;99.90;;;;;;5050440;28;20040;-48
2022/05/01 07:58:57;;;;;;;9.52;6.80;;;17.80;99.90;;;;;;5052333;28;20021;-45
2022/05/01 08:01:23;;;;;;;16.08;11.38;;;17.70;99.90;;;;;;5051868;28;20035;-47
2022/05/01 08:06:33;;;;;;;12.77;5.70;;;17.80;99.90;;;;;;5046106;28;20094;-47
2022/05/01 08:08:58;;;;;;;10.38;7.85;;;17.60;99.90;;;;;;5026071;28;20384;-45
2022/05/01 08:11:24;;;;;;;17.20;11.10;;;17.80;99.90;;;;;;5052377;28;20025;-46
2022/05/01 08:13:50;;;;;;;7.78;5.50;;;;;;;;;;5052774;28;20044;-47
2022/05/01 08:16:20;;;;;;;8.27;5.32;;;18.60;99.90;;;;;;5053209;28;20025;-46
2022/05/01 08:21:32;;;;;;;6.22;3.15;;;19.00;99.90;;;;;;5043412;28;20103;-46
2022/05/01 08:23:59;;;;;;;5.22;3.70;;;19.10;99.90;;;;;;5050454;28;20037;-45
2022/05/01 08:26:26;;;;;;;3.30;2.17;;;19.00;99.90;;;;;;5055988;28;20132;-46
2022/05/01 08:28:54;;;;;;;4.22;2.72;;;19.20;99.90;;;;;;5052276;28;20033;-45
2022/05/01 08:31:21;;;;;;;4.32;2.85;;;19.40;99.90;;;;;;5051224;28;20071;-45
2022/05/01 08:33:47;;;;;;;5.53;2.88;;;19.60;99.90;;;;;;5054991;28;20044;-44
2022/05/01 08:36:13;;;;;;;4.60;2.28;;;19.80;99.90;;;;;;5055801;28;20044;-45
2022/05/01 08:38:39;;;;;;;3.58;2.60;;;;;;;;;;5026660;28;20045;-46
2022/05/01 08:41:07;;;;;;;2.80;2.00;;;19.60;99.90;;;;;;5051282;28;20483;-45
2022/05/01 08:43:34;;;;;;;2.83;1.75;;;20.10;99.90;;;;;;5051961;28;20044;-44
2022/05/01 08:46:03;;;;;;;4.43;2.30;;;;;;;;;;5052022;28;20047;-46
2022/05/01 08:49:06;;;;;;;3.63;2.30;;;20.50;99.90;;;;;;5048257;28;20057;-46
2022/05/01 08:51:36;;;;;;;4.00;2.10;;;;;;;;;;5050107;28;20029;-45
2022/05/01 08:54:12;;;;;;;3.53;3.00;;;;;;;;;;5051072;28;20041;-46
2022/05/01 08:56:40;;;;;;;1.58;1.33;;;21.30;99.90;;;;;;5045931;28;20064;-46
2022/05/01 08:59:11;;;;;;;4.10;2.17;;;20.80;99.90;;;;;;5049422;28;20094;-47
2022/05/01 09:01:39;;;;;;;3.47;2.00;;;21.00;99.90;;;;;;5051029;28;20024;-44
2022/05/01 09:04:06;;;;;;;10.02;5.13;;;21.00;99.90;;;;;;5044480;28;20028;-45
2022/05/01 09:06:37;;;;;;;4.28;2.55;;;20.70;99.90;;;;;;5048946;28;20128;-44
2022/05/01 09:09:10;;;;;;;3.08;1.42;;;20.50;99.90;;;;;;5053527;28;20706;-46
2022/05/01 09:14:25;;;;;;;2.95;1.60;;;20.70;99.90;;;;;;5053752;28;20040;-46
2022/05/01 09:17:16;;;;;;;3.60;1.98;;;20.70;99.90;;;;;;5027276;28;20045;-44
2022/05/01 09:19:48;;;;;;;2.97;2.20;;;20.60;99.90;;;;;;5049950;28;20028;-45
2022/05/01 09:22:15;;;;;;;3.10;1.70;;;20.90;99.90;;;;;;5034975;28;20073;-44
2022/05/01 09:24:41;;;;;;;3.80;1.70;;;21.10;99.90;;;;;;5010534;28;20037;-44
2022/05/01 09:27:27;;;;;;;6.07;2.10;;;21.30;99.90;;;;;;5038671;28;20072;-45
2022/05/01 09:30:16;;;;;;;6.20;2.47;;;20.90;99.90;;;;;;5029620;28;20044;-46
2022/05/01 09:32:43;;;;;;;3.10;1.77;;;21.00;99.90;;;;;;5029078;28;20064;-44
2022/05/01 09:35:15;;;;;;;3.35;1.60;;;21.00;99.90;;;;;;5014604;28;20037;-44
2022/05/01 09:37:41;;;;;;;3.60;2.30;;;21.20;99.90;;;;;;5031341;28;20497;-44
2022/05/01 09:40:08;;;;;;;4.85;2.50;;;21.20;99.90;;;;;;4996598;28;20508;-44
2022/05/01 09:42:35;;;;;;;4.40;2.40;;;21.40;99.90;;;;;;4976868;28;20053;-45
2022/05/01 09:45:05;;;;;;;3.72;2.05;;;21.10;99.90;;;;;;5040535;28;20056;-45
2022/05/01 09:47:35;;;;;;;6.25;1.70;;;21.20;99.90;;;;;;5017857;28;20448;-44
2022/05/01 09:50:02;;;;;;;4.18;1.73;;;21.00;99.90;;;;;;5048927;28;20530;-44
2022/05/01 09:52:54;;;;;;;3.55;1.63;;;20.90;99.90;;;;;;5050988;28;20052;-46
2022/05/01 09:55:20;;;;;;;4.68;2.30;;;20.80;99.90;;;;;;5033362;28;20065;-44
2022/05/01 09:57:46;;;;;;;1.90;1.33;;;20.60;99.90;;;;;;5034016;28;20481;-46
2022/05/01 10:00:12;;;;;;;2.42;1.45;;;20.10;99.90;;;;;;5030220;28;20040;-45
2022/05/01 10:02:39;;;;;;;3.67;1.90;;;19.80;99.90;;;;;;5028749;28;20053;-46
2022/05/01 10:05:07;;;;;;;2.95;1.90;;;20.00;99.90;;;;;;5028850;28;20068;-45
2022/05/01 10:07:37;;;;;;;4.18;2.33;;;19.90;99.90;;;;;;5032273;28;20129;-44
2022/05/01 10:10:10;;;;;;;2.70;2.17;;;19.80;99.90;;;;;;5029745;28;20092;-45
2022/05/01 10:12:45;;;;;;;5.07;2.47;;;19.70;99.90;;;;;;4996205;28;20124;-45
2022/05/01 10:15:11;;;;;;;2.97;2.67;;;20.10;99.90;;;;;;5032344;28;20052;-43
2022/05/01 10:17:38;;;;;;;3.88;2.50;;;20.30;99.90;;;;;;5031257;28;20041;-44
2022/05/01 10:20:05;;;;;;;4.20;2.08;;;20.20;99.90;;;;;;5032321;28;20100;-46
2022/05/01 10:22:35;;;;;;;5.82;2.53;;;20.50;99.90;;;;;;5031684;28;20040;-44
2022/05/01 10:25:03;;;;;;;4.70;2.70;;;20.70;99.90;;;;;;5010204;28;20053;-43
2022/05/01 10:27:40;;;;;;;5.05;2.75;;;20.80;99.90;;;;;;5051154;28;20029;-44
2022/05/01 10:33:26;;;;;;;3.75;2.80;;;21.30;99.90;;;;;;5052980;28;20043;-44
2022/05/01 10:36:07;;;;;;;4.22;2.80;;;;;;;;;;5063956;28;20116;-44
2022/05/01 10:38:40;;;;;;;4.27;2.53;;;;;;;;;;5046312;28;20056;-45
2022/05/01 10:41:08;;;;;;;2.80;1.80;;;21.80;99.90;;;;;;5048329;28;20552;-45
2022/05/01 10:43:36;;;;;;;3.00;2.45;;;21.40;99.90;;;;;;5047092;28;20040;-44
2022/05/01 10:46:17;;;;;;;3.15;2.20;;;21.40;99.90;;;;;;5051741;28;20421;-44
2022/05/01 10:48:43;;;;;;;5.20;2.63;;;21.20;99.90;;;;;;5054435;28;20691;-45
2022/05/01 10:51:27;;;;;;;1.98;1.35;;;20.90;99.90;;;;;;5051601;28;21074;-46
2022/05/01 10:54:15;;;;;;;4.72;2.00;;;20.70;99.90;;;;;;5048388;28;20110;-44
2022/05/01 10:56:43;;;;;;;2.88;2.13;;;20.80;99.90;;;;;;5042519;28;20033;-44
2022/05/01 10:59:29;;;;;;;5.00;2.67;;;20.80;99.90;;;;;;5049886;28;20069;-44
2022/05/01 11:02:00;;;;;;;4.30;2.95;;;20.70;99.90;;;;;;5053739;28;20060;-45
2022/05/01 11:04:32;;;;;;;5.70;3.30;;;20.90;99.90;;;;;;5056761;28;20037;-45
2022/05/01 11:06:59;;;;;;;3.40;1.83;;;20.90;99.90;;;;;;5051254;28;20132;-46
2022/05/01 11:09:26;;;;;;;3.15;2.40;;;21.10;99.90;;;;;;5052229;28;20048;-44
2022/05/01 11:11:56;;;;;;;5.72;2.58;;;21.20;99.90;;;;;;5056050;28;20029;-45
2022/05/01 11:14:41;;;;;;;5.05;2.53;;;21.30;99.90;;;;;;5045555;28;20115;-45
2022/05/01 11:17:12;;;;;;;3.15;2.60;;;21.60;99.90;;;;;;5051165;28;20024;-45
2022/05/01 11:19:51;;;;;;;5.20;2.97;;;;;;;;;;5051606;28;20027;-45
2022/05/01 11:22:23;;;;;;;4.95;3.28;;;;;;;;;;5050700;28;20025;-45
2022/05/01 11:24:49;;;;;;;4.35;3.08;;;22.60;99.90;;;;;;5050348;28;20436;-46
2022/05/01 11:27:17;;;;;;;4.88;2.47;;;22.90;99.90;;;;;;5016233;28;20052;-45
2022/05/01 11:30:24;;;;;;;5.97;3.00;;;23.30;99.90;;;;;;5050806;28;20033;-43
2022/05/01 11:32:50;;;;;;;3.92;2.25;;;;;;;;;;5051213;28;20036;-45
2022/05/01 11:35:17;;;;;;;7.20;3.13;;;24.10;99.90;;;;;;5054485;28;20044;-45
2022/05/01 11:38:01;;;;;;;3.80;2.97;;;;;;;;;;5051588;28;20028;-46
2022/05/01 11:40:28;;;;;;;3.15;2.63;;;;;;;;;;5049464;28;20054;-44
2022/05/01 11:43:14;;;;;;;3.97;2.50;;;;;;;;;;5046233;28;20055;-44
2022/05/01 11:45:40;;;;;;;5.20;2.75;;;;;;;;;;5050171;28;20507;-45
2022/05/01 11:48:12;;;;;;;4.97;3.20;;;24.10;98.60;;;;;;5054218;28;20071;-45
2022/05/01 11:50:39;;;;;;;5.07;3.80;;;24.30;99.00;;;;;;5053929;28;20048;-44
2022/05/01 11:53:15;;;;;;;6.57;3.33;;;24.60;99.90;;;;;;5050939;28;20119;-46
2022/05/01 12:04:23;;;;;;;5.68;3.72;;;24.60;99.90;;;;;;5028288;28;20592;-45
2022/05/01 12:06:55;;;;;;;6.32;4.22;;;24.60;97.70;;;;;;5031074;28;20068;-46
2022/05/01 12:09:24;;;;;;;7.20;3.95;;;;;;;;;;5032865;28;20037;-45
2022/05/01 12:11:51;;;;;;;5.70;3.47;;;;;;;;;;5021751;28;20037;-45
2022/05/01 12:14:16;;;;;;;5.93;4.75;;;25.20;99.90;;;;;;5027171;28;20030;-46
2022/05/01 12:16:44;;;;;;;5.00;3.08;;;25.10;99.90;;;;;;4997253;28;20199;-44
2022/05/01 12:19:10;;;;;;;3.53;2.83;;;25.20;99.90;;;;;;5029078;28;20077;-48
2022/05/01 12:21:36;;;;;;;6.82;3.60;;;24.80;99.90;;;;;;5028955;28;20045;-45
2022/05/01 12:24:06;;;;;;;3.47;2.72;;;24.90;99.90;;;;;;5032618;28;20037;-45
2022/05/01 12:26:36;;;;;;;5.20;2.80;;;24.80;99.90;;;;;;5020731;28;20041;-46
2022/05/01 12:29:02;;;;;;;4.47;2.70;;;24.40;98.70;;;;;;5046131;28;20040;-46
2022/05/01 12:31:29;;;;;;;3.03;2.35;;;24.30;97.90;;;;;;5048213;28;20029;-44
2022/05/01 12:33:55;;;;;;;7.25;3.30;;;23.60;98.70;;;;;;5051444;28;20717;-46
2022/05/01 12:36:25;;;;;;;4.47;2.22;;;23.20;96.70;;;;;;5054595;28;20107;-44
2022/05/01 12:39:04;;;;;;;6.20;3.50;;;23.40;97.30;;;;;;5051374;28;20076;-47
2022/05/01 12:44:14;;;;;;;2.90;2.13;;;23.30;96.60;;;;;;5047262;28;20036;-46
2022/05/01 12:46:51;;;;;;;3.70;2.45;;;23.60;96.50;;;;;;5054885;28;20041;-46
2022/05/01 12:49:26;;;;;;;8.90;3.40;;;23.50;96.30;;;;;;5055601;28;20029;-47
2022/05/01 12:51:52;;;;;;;7.20;3.45;;;24.00;97.30;;;;;;5055422;28;20033;-46
2022/05/01 12:54:18;;;;;;;6.65;3.13;;;24.40;97.00;;;;;;5053513;28;20110;-47
2022/05/01 12:56:47;;;;;;;5.93;3.40;;;24.30;97.10;;;;;;5030214;28;20369;-47
2022/05/01 12:59:30;;;;;;;7.65;3.50;;;23.70;96.30;;;;;;5057841;28;20040;-47
2022/05/01 13:01:57;;;;;;;6.13;3.47;;;23.50;96.20;;;;;;5055862;28;20099;-45
2022/05/01 13:04:24;;;;;;;5.07;2.38;;;23.40;96.00;;;;;;5020487;28;20048;-47
2022/05/01 13:06:51;;;;;;;5.25;3.80;;;23.30;96.20;;;;;;5007918;28;20201;-46
2022/05/01 13:09:16;;;;;;;5.57;3.60;;;23.50;96.30;;;;;;5057252;28;20554;-47
2022/05/01 13:12:05;;;;;;;5.40;3.55;;;23.50;96.70;;;;;;5016113;28;20120;-44
2022/05/01 13:14:33;;;;;;;4.20;3.10;;;23.60;96.50;;;;;;5033454;28;20036;-46
2022/05/01 13:17:14;;;;;;;3.53;2.40;;;23.80;96.80;;;;;;5032320;28;20052;-46
2022/05/01 13:19:41;;;;;;;4.28;3.35;;;23.90;95.70;;;;;;5030391;28;20037;-46
2022/05/01 13:22:08;;;;;;;5.22;3.60;;;24.00;95.00;;;;;;5031657;28;20033;-45
2022/05/01 13:24:36;;;;;;;4.68;3.42;;;24.20;95.30;;;;;;5037938;28;20030;-46
2022/05/01 13:27:09;;;;;;;4.82;3.00;;;24.10;96.10;;;;;;4982756;28;20041;-46
2022/05/01 13:29:37;;;;;;;2.92;2.13;;;24.50;95.50;;;;;;5032850;28;20107;-45
2022/05/01 13:32:06;;;;;;;3.83;2.53;;;24.40;99.90;;;;;;5001080;28;20038;-45
2022/05/01 13:34:34;;;;;;;3.72;2.75;;;24.50;99.90;;;;;;5035092;28;20045;-45
2022/05/01 13:37:01;;;;;;;5.00;2.42;;;25.00;99.90;;;;;;4985374;28;20037;-45